sensor_id;sensor_type;location;lat;lon;timestamp;P1;durP1;ratioP1;P2;durP2;ratioP2
21513;SDS011;10918;48.102;11.636;2023-03-21T00:01:37;3.53;;;2.35;;
21513;SDS011;10918;48.102;11.636;2023-03-21T00:04:03;3.08;;;2.47;;
21513;SDS011;10918;48.102;11.636;2023-03-21T00:06:30;2.28;;;2.08;;
21513;SDS011;10918;48.102;11.636;2023-03-21T00:08:56;2.85;;;2.55;;
21513;SDS011;10918;48.102;11.636;2023-03-21T00:11:22;2.60;;;2.40;;
21513;SDS011;10918;48.102;11.636;2023-03-21T00:13:48;3.17;;;2.38;;
21513;SDS011;10918;48.102;11.636;2023-03-21T00:16:15;2.55;;;2.30;;
21513;SDS011;10918;48.102;11.636;2023-03-21T00:18:42;4.15;;;2.95;;
21513;SDS011;10918;48.102;11.636;2023-03-21T00:21:11;3.05;;;2.60;;
21513;SDS011;10918;48.102;11.636;2023-03-21T00:23:39;3.08;;;2.70;;
21513;SDS011;10918;48.102;11.636;2023-03-21T00:26:05;4.85;;;2.78;;
21513;SDS011;10918;48.102;11.636;2023-03-21T00:28:34;3.53;;;2.85;;
21513;SDS011;10918;48.102;11.636;2023-03-21T00:31:00;2.88;;;2.40;;
21513;SDS011;10918;48.102;11.636;2023-03-21T00:33:26;4.13;;;3.05;;
21513;SDS011;10918;48.102;11.636;2023-03-21T00:35:52;3.58;;;2.90;;
21513;SDS011;10918;48.102;11.636;2023-03-21T00:38:19;3.15;;;2.53;;
21513;SDS011;10918;48.102;11.636;2023-03-21T00:40:46;3.15;;;2.65;;
21513;SDS011;10918;48.102;11.636;2023-03-21T00:43:12;3.33;;;2.88;;
21513;SDS011;10918;48.102;11.636;2023-03-21T00:45:41;3.55;;;2.95;;
21513;SDS011;10918;48.102;11.636;2023-03-21T00:48:07;3.45;;;3.15;;
21513;SDS011;10918;48.102;11.636;2023-03-21T00:50:33;4.55;;;2.95;;
21513;SDS011;10918;48.102;11.636;2023-03-21T00:53:00;4.35;;;3.20;;
21513;SDS011;10918;48.102;11.636;2023-03-21T00:55:26;6.82;;;3.88;;
21513;SDS011;10918;48.102;11.636;2023-03-21T00:57:52;5.57;;;3.97;;
21513;SDS011;10918;48.102;11.636;2023-03-21T01:00:18;6.05;;;3.88;;
21513;SDS011;10918;48.102;11.636;2023-03-21T01:02:44;6.18;;;3.85;;
21513;SDS011;10918;48.102;11.636;2023-03-21T01:08:09;4.38;;;3.88;;
21513;SDS011;10918;48.102;11.636;2023-03-21T01:10:39;6.43;;;4.28;;
21513;SDS011;10918;48.102;11.636;2023-03-21T01:13:06;4.57;;;3.80;;
21513;SDS011;10918;48.102;11.636;2023-03-21T01:15:33;5.85;;;3.92;;
21513;SDS011;10918;48.102;11.636;2023-03-21T01:17:59;4.75;;;3.47;;
21513;SDS011;10918;48.102;11.636;2023-03-21T01:20:25;5.07;;;3.10;;
21513;SDS011;10918;48.102;11.636;2023-03-21T01:22:51;5.70;;;3.47;;
21513;SDS011;10918;48.102;11.636;2023-03-21T01:25:18;4.20;;;3.38;;
21513;SDS011;10918;48.102;11.636;2023-03-21T01:27:44;7.50;;;3.80;;
21513;SDS011;10918;48.102;11.636;2023-03-21T01:30:11;4.03;;;3.20;;
21513;SDS011;10918;48.102;11.636;2023-03-21T01:32:37;3.33;;;2.97;;
21513;SDS011;10918;48.102;11.636;2023-03-21T01:35:03;3.25;;;2.95;;
21513;SDS011;10918;48.102;11.636;2023-03-21T01:37:29;3.78;;;2.88;;
21513;SDS011;10918;48.102;11.636;2023-03-21T01:39:56;6.50;;;3.20;;
21513;SDS011;10918;48.102;11.636;2023-03-21T01:42:22;4.65;;;3.47;;
21513;SDS011;10918;48.102;11.636;2023-03-21T01:47:17;3.80;;;2.88;;
21513;SDS011;10918;48.102;11.636;2023-03-21T01:49:44;4.60;;;2.95;;
21513;SDS011;10918;48.102;11.636;2023-03-21T01:52:23;4.50;;;3.20;;
21513;SDS011;10918;48.102;11.636;2023-03-21T01:54:51;4.38;;;3.50;;
21513;SDS011;10918;48.102;11.636;2023-03-21T01:57:24;4.68;;;3.30;;
21513;SDS011;10918;48.102;11.636;2023-03-21T01:59:56;4.75;;;3.22;;
21513;SDS011;10918;48.102;11.636;2023-03-21T02:02:24;4.97;;;3.58;;
21513;SDS011;10918;48.102;11.636;2023-03-21T02:04:51;3.78;;;2.92;;
21513;SDS011;10918;48.102;11.636;2023-03-21T02:07:32;4.05;;;3.03;;
21513;SDS011;10918;48.102;11.636;2023-03-21T02:10:00;4.47;;;3.13;;
21513;SDS011;10918;48.102;11.636;2023-03-21T02:12:28;5.38;;;3.30;;
21513;SDS011;10918;48.102;11.636;2023-03-21T02:14:54;5.07;;;3.05;;
21513;SDS011;10918;48.102;11.636;2023-03-21T02:22:44;5.10;;;3.30;;
21513;SDS011;10918;48.102;11.636;2023-03-21T02:28:03;4.30;;;3.25;;
21513;SDS011;10918;48.102;11.636;2023-03-21T02:30:47;4.15;;;3.03;;
21513;SDS011;10918;48.102;11.636;2023-03-21T02:41:07;3.92;;;3.10;;
21513;SDS011;10918;48.102;11.636;2023-03-21T02:46:41;3.22;;;2.53;;
21513;SDS011;10918;48.102;11.636;2023-03-21T02:49:10;3.30;;;2.60;;
21513;SDS011;10918;48.102;11.636;2023-03-21T02:51:39;4.40;;;3.35;;
21513;SDS011;10918;48.102;11.636;2023-03-21T02:54:08;4.05;;;2.95;;
21513;SDS011;10918;48.102;11.636;2023-03-21T02:56:35;3.22;;;2.80;;
21513;SDS011;10918;48.102;11.636;2023-03-21T02:59:02;4.50;;;2.95;;
21513;SDS011;10918;48.102;11.636;2023-03-21T03:01:28;3.17;;;2.58;;
21513;SDS011;10918;48.102;11.636;2023-03-21T03:03:56;3.15;;;2.70;;
21513;SDS011;10918;48.102;11.636;2023-03-21T03:06:23;2.88;;;2.53;;
21513;SDS011;10918;48.102;11.636;2023-03-21T03:16:27;3.83;;;2.53;;
21513;SDS011;10918;48.102;11.636;2023-03-21T03:18:55;3.90;;;3.00;;
21513;SDS011;10918;48.102;11.636;2023-03-21T03:23:56;4.63;;;3.58;;
21513;SDS011;10918;48.102;11.636;2023-03-21T03:26:25;4.93;;;3.10;;
21513;SDS011;10918;48.102;11.636;2023-03-21T03:28:54;3.58;;;3.17;;
21513;SDS011;10918;48.102;11.636;2023-03-21T03:31:26;6.20;;;3.03;;
21513;SDS011;10918;48.102;11.636;2023-03-21T03:33:55;3.53;;;3.10;;
21513;SDS011;10918;48.102;11.636;2023-03-21T03:36:26;3.78;;;3.22;;
21513;SDS011;10918;48.102;11.636;2023-03-21T03:38:53;4.38;;;3.30;;
21513;SDS011;10918;48.102;11.636;2023-03-21T03:41:21;3.88;;;3.25;;
21513;SDS011;10918;48.102;11.636;2023-03-21T03:43:50;3.45;;;3.13;;
21513;SDS011;10918;48.102;11.636;2023-03-21T03:46:25;5.93;;;3.25;;
21513;SDS011;10918;48.102;11.636;2023-03-21T03:48:53;3.50;;;3.13;;
21513;SDS011;10918;48.102;11.636;2023-03-21T03:51:24;5.03;;;3.45;;
21513;SDS011;10918;48.102;11.636;2023-03-21T03:53:54;4.55;;;3.30;;
21513;SDS011;10918;48.102;11.636;2023-03-21T03:56:21;4.28;;;2.80;;
21513;SDS011;10918;48.102;11.636;2023-03-21T03:58:49;3.03;;;2.40;;
21513;SDS011;10918;48.102;11.636;2023-03-21T04:01:15;4.68;;;3.17;;
21513;SDS011;10918;48.102;11.636;2023-03-21T04:03:42;4.15;;;2.90;;
21513;SDS011;10918;48.102;11.636;2023-03-21T04:06:09;5.20;;;2.90;;
21513;SDS011;10918;48.102;11.636;2023-03-21T04:08:35;3.95;;;2.95;;
21513;SDS011;10918;48.102;11.636;2023-03-21T04:11:01;3.45;;;2.80;;
21513;SDS011;10918;48.102;11.636;2023-03-21T04:13:28;3.25;;;2.95;;
21513;SDS011;10918;48.102;11.636;2023-03-21T04:15:54;2.92;;;2.63;;
21513;SDS011;10918;48.102;11.636;2023-03-21T04:18:21;3.05;;;2.63;;
21513;SDS011;10918;48.102;11.636;2023-03-21T04:20:48;4.15;;;3.13;;
21513;SDS011;10918;48.102;11.636;2023-03-21T04:23:15;4.03;;;2.65;;
21513;SDS011;10918;48.102;11.636;2023-03-21T04:25:43;5.05;;;3.30;;
21513;SDS011;10918;48.102;11.636;2023-03-21T04:28:10;3.40;;;3.10;;
21513;SDS011;10918;48.102;11.636;2023-03-21T04:30:36;3.10;;;2.78;;
21513;SDS011;10918;48.102;11.636;2023-03-21T04:33:02;5.10;;;3.20;;
21513;SDS011;10918;48.102;11.636;2023-03-21T04:35:28;4.00;;;3.13;;
21513;SDS011;10918;48.102;11.636;2023-03-21T04:37:54;3.15;;;2.83;;
21513;SDS011;10918;48.102;11.636;2023-03-21T04:40:20;4.25;;;2.42;;
21513;SDS011;10918;48.102;11.636;2023-03-21T04:42:46;3.20;;;2.90;;
21513;SDS011;10918;48.102;11.636;2023-03-21T04:45:13;4.88;;;3.20;;
21513;SDS011;10918;48.102;11.636;2023-03-21T04:47:40;5.30;;;3.85;;
21513;SDS011;10918;48.102;11.636;2023-03-21T04:50:07;4.32;;;3.08;;
21513;SDS011;10918;48.102;11.636;2023-03-21T04:52:33;5.93;;;3.55;;
21513;SDS011;10918;48.102;11.636;2023-03-21T04:54:59;4.63;;;3.67;;
21513;SDS011;10918;48.102;11.636;2023-03-21T04:57:26;5.65;;;4.18;;
21513;SDS011;10918;48.102;11.636;2023-03-21T04:59:51;7.75;;;5.05;;
21513;SDS011;10918;48.102;11.636;2023-03-21T05:02:18;5.80;;;4.38;;
21513;SDS011;10918;48.102;11.636;2023-03-21T05:04:44;6.15;;;4.03;;
21513;SDS011;10918;48.102;11.636;2023-03-21T05:07:10;3.70;;;3.33;;
21513;SDS011;10918;48.102;11.636;2023-03-21T05:09:36;4.50;;;3.40;;
21513;SDS011;10918;48.102;11.636;2023-03-21T05:12:02;4.97;;;3.90;;
21513;SDS011;10918;48.102;11.636;2023-03-21T05:14:28;5.22;;;3.35;;
21513;SDS011;10918;48.102;11.636;2023-03-21T05:16:54;13.05;;;10.23;;
21513;SDS011;10918;48.102;11.636;2023-03-21T05:19:25;6.47;;;5.15;;
21513;SDS011;10918;48.102;11.636;2023-03-21T05:21:58;3.45;;;2.83;;
21513;SDS011;10918;48.102;11.636;2023-03-21T05:24:28;5.15;;;3.58;;
21513;SDS011;10918;48.102;11.636;2023-03-21T05:26:54;5.38;;;3.33;;
21513;SDS011;10918;48.102;11.636;2023-03-21T05:29:26;3.72;;;3.22;;
21513;SDS011;10918;48.102;11.636;2023-03-21T05:31:52;4.72;;;3.10;;
21513;SDS011;10918;48.102;11.636;2023-03-21T05:34:18;5.10;;;3.63;;
21513;SDS011;10918;48.102;11.636;2023-03-21T05:36:44;4.20;;;3.40;;
21513;SDS011;10918;48.102;11.636;2023-03-21T05:39:10;3.70;;;3.17;;
21513;SDS011;10918;48.102;11.636;2023-03-21T05:41:36;5.28;;;3.05;;
21513;SDS011;10918;48.102;11.636;2023-03-21T05:44:02;3.90;;;3.10;;
21513;SDS011;10918;48.102;11.636;2023-03-21T05:46:28;4.15;;;2.97;;
21513;SDS011;10918;48.102;11.636;2023-03-21T05:48:54;4.68;;;3.13;;
21513;SDS011;10918;48.102;11.636;2023-03-21T05:51:20;4.55;;;3.42;;
21513;SDS011;10918;48.102;11.636;2023-03-21T05:53:46;3.25;;;2.95;;
21513;SDS011;10918;48.102;11.636;2023-03-21T05:56:12;4.25;;;3.25;;
21513;SDS011;10918;48.102;11.636;2023-03-21T05:58:38;3.30;;;3.00;;
21513;SDS011;10918;48.102;11.636;2023-03-21T06:01:04;3.72;;;3.05;;
21513;SDS011;10918;48.102;11.636;2023-03-21T06:03:30;5.18;;;3.25;;
21513;SDS011;10918;48.102;11.636;2023-03-21T06:05:56;4.50;;;3.22;;
21513;SDS011;10918;48.102;11.636;2023-03-21T06:08:22;3.80;;;2.95;;
21513;SDS011;10918;48.102;11.636;2023-03-21T06:10:48;3.50;;;3.20;;
21513;SDS011;10918;48.102;11.636;2023-03-21T06:13:14;4.10;;;2.88;;
21513;SDS011;10918;48.102;11.636;2023-03-21T06:15:40;6.47;;;3.50;;
21513;SDS011;10918;48.102;11.636;2023-03-21T06:18:06;4.22;;;3.42;;
21513;SDS011;10918;48.102;11.636;2023-03-21T06:20:32;4.17;;;3.43;;
21513;SDS011;10918;48.102;11.636;2023-03-21T06:22:58;6.90;;;3.00;;
21513;SDS011;10918;48.102;11.636;2023-03-21T06:25:24;5.50;;;3.40;;
21513;SDS011;10918;48.102;11.636;2023-03-21T06:27:50;6.13;;;3.22;;
21513;SDS011;10918;48.102;11.636;2023-03-21T06:30:16;5.05;;;3.25;;
21513;SDS011;10918;48.102;11.636;2023-03-21T06:32:45;4.72;;;3.03;;
21513;SDS011;10918;48.102;11.636;2023-03-21T06:35:11;6.30;;;2.95;;
21513;SDS011;10918;48.102;11.636;2023-03-21T06:37:37;4.25;;;3.03;;
21513;SDS011;10918;48.102;11.636;2023-03-21T06:40:04;2.97;;;2.67;;
21513;SDS011;10918;48.102;11.636;2023-03-21T06:42:31;3.85;;;2.78;;
21513;SDS011;10918;48.102;11.636;2023-03-21T06:44:57;3.70;;;3.00;;
21513;SDS011;10918;48.102;11.636;2023-03-21T06:47:23;3.92;;;2.92;;
21513;SDS011;10918;48.102;11.636;2023-03-21T06:49:49;3.17;;;2.75;;
21513;SDS011;10918;48.102;11.636;2023-03-21T06:52:15;4.18;;;2.67;;
21513;SDS011;10918;48.102;11.636;2023-03-21T06:54:41;5.93;;;3.28;;
21513;SDS011;10918;48.102;11.636;2023-03-21T06:57:07;3.67;;;2.80;;
21513;SDS011;10918;48.102;11.636;2023-03-21T06:59:33;3.40;;;2.80;;
21513;SDS011;10918;48.102;11.636;2023-03-21T07:02:00;6.40;;;2.78;;
21513;SDS011;10918;48.102;11.636;2023-03-21T07:04:26;5.07;;;3.15;;
21513;SDS011;10918;48.102;11.636;2023-03-21T07:06:53;4.05;;;2.88;;
21513;SDS011;10918;48.102;11.636;2023-03-21T07:09:19;4.82;;;3.10;;
21513;SDS011;10918;48.102;11.636;2023-03-21T07:11:48;3.25;;;2.83;;
21513;SDS011;10918;48.102;11.636;2023-03-21T07:14:17;4.82;;;2.95;;
21513;SDS011;10918;48.102;11.636;2023-03-21T07:16:43;6.55;;;3.33;;
21513;SDS011;10918;48.102;11.636;2023-03-21T07:19:09;4.93;;;3.08;;
21513;SDS011;10918;48.102;11.636;2023-03-21T07:21:35;4.75;;;3.08;;
21513;SDS011;10918;48.102;11.636;2023-03-21T07:24:01;6.22;;;3.42;;
21513;SDS011;10918;48.102;11.636;2023-03-21T07:26:27;6.97;;;3.50;;
21513;SDS011;10918;48.102;11.636;2023-03-21T07:28:53;6.45;;;3.10;;
21513;SDS011;10918;48.102;11.636;2023-03-21T07:31:19;6.60;;;3.20;;
21513;SDS011;10918;48.102;11.636;2023-03-21T07:33:45;7.10;;;3.80;;
21513;SDS011;10918;48.102;11.636;2023-03-21T07:36:12;5.05;;;3.42;;
21513;SDS011;10918;48.102;11.636;2023-03-21T07:38:39;5.20;;;3.67;;
21513;SDS011;10918;48.102;11.636;2023-03-21T07:41:05;8.27;;;3.30;;
21513;SDS011;10918;48.102;11.636;2023-03-21T07:43:31;4.53;;;3.83;;
21513;SDS011;10918;48.102;11.636;2023-03-21T07:45:57;3.55;;;3.08;;
21513;SDS011;10918;48.102;11.636;2023-03-21T07:48:23;5.40;;;3.60;;
21513;SDS011;10918;48.102;11.636;2023-03-21T07:50:49;4.60;;;3.35;;
21513;SDS011;10918;48.102;11.636;2023-03-21T07:53:15;4.38;;;3.55;;
21513;SDS011;10918;48.102;11.636;2023-03-21T07:55:41;6.60;;;3.45;;
21513;SDS011;10918;48.102;11.636;2023-03-21T07:58:07;5.50;;;3.88;;
21513;SDS011;10918;48.102;11.636;2023-03-21T08:00:33;6.70;;;4.15;;
21513;SDS011;10918;48.102;11.636;2023-03-21T08:02:59;9.57;;;3.90;;
21513;SDS011;10918;48.102;11.636;2023-03-21T08:07:51;7.82;;;4.10;;
21513;SDS011;10918;48.102;11.636;2023-03-21T08:10:17;7.88;;;3.70;;
21513;SDS011;10918;48.102;11.636;2023-03-21T08:12:44;8.65;;;3.90;;
21513;SDS011;10918;48.102;11.636;2023-03-21T08:15:10;4.55;;;3.60;;
21513;SDS011;10918;48.102;11.636;2023-03-21T08:17:36;9.05;;;3.63;;
21513;SDS011;10918;48.102;11.636;2023-03-21T08:20:06;6.93;;;3.67;;
21513;SDS011;10918;48.102;11.636;2023-03-21T08:22:34;10.88;;;4.28;;
21513;SDS011;10918;48.102;11.636;2023-03-21T08:25:01;8.18;;;4.28;;
21513;SDS011;10918;48.102;11.636;2023-03-21T08:27:29;7.20;;;3.80;;
21513;SDS011;10918;48.102;11.636;2023-03-21T08:29:55;4.85;;;4.07;;
21513;SDS011;10918;48.102;11.636;2023-03-21T08:32:21;6.32;;;4.00;;
21513;SDS011;10918;48.102;11.636;2023-03-21T08:34:53;7.75;;;4.00;;
21513;SDS011;10918;48.102;11.636;2023-03-21T08:37:19;10.82;;;4.00;;
21513;SDS011;10918;48.102;11.636;2023-03-21T08:39:45;5.40;;;4.20;;
21513;SDS011;10918;48.102;11.636;2023-03-21T08:42:11;5.70;;;3.80;;
21513;SDS011;10918;48.102;11.636;2023-03-21T08:44:38;5.32;;;3.70;;
21513;SDS011;10918;48.102;11.636;2023-03-21T08:47:05;6.55;;;3.67;;
21513;SDS011;10918;48.102;11.636;2023-03-21T08:49:33;5.25;;;3.72;;
21513;SDS011;10918;48.102;11.636;2023-03-21T08:51:59;6.93;;;3.95;;
21513;SDS011;10918;48.102;11.636;2023-03-21T08:54:25;5.43;;;3.60;;
21513;SDS011;10918;48.102;11.636;2023-03-21T08:56:52;6.72;;;4.30;;
21513;SDS011;10918;48.102;11.636;2023-03-21T08:59:17;4.57;;;3.70;;
21513;SDS011;10918;48.102;11.636;2023-03-21T09:01:43;4.63;;;3.83;;
21513;SDS011;10918;48.102;11.636;2023-03-21T09:04:10;4.60;;;3.55;;
21513;SDS011;10918;48.102;11.636;2023-03-21T09:06:36;5.90;;;3.78;;
21513;SDS011;10918;48.102;11.636;2023-03-21T09:09:04;6.97;;;3.80;;
21513;SDS011;10918;48.102;11.636;2023-03-21T09:11:32;5.85;;;4.00;;
21513;SDS011;10918;48.102;11.636;2023-03-21T09:13:58;5.70;;;3.20;;
21513;SDS011;10918;48.102;11.636;2023-03-21T09:16:24;4.32;;;3.45;;
21513;SDS011;10918;48.102;11.636;2023-03-21T09:18:50;6.97;;;3.63;;
21513;SDS011;10918;48.102;11.636;2023-03-21T09:21:19;3.95;;;3.38;;
21513;SDS011;10918;48.102;11.636;2023-03-21T09:23:46;8.40;;;3.90;;
21513;SDS011;10918;48.102;11.636;2023-03-21T09:26:16;4.20;;;2.95;;
21513;SDS011;10918;48.102;11.636;2023-03-21T09:28:43;3.83;;;3.15;;
21513;SDS011;10918;48.102;11.636;2023-03-21T09:31:10;3.53;;;2.92;;
21513;SDS011;10918;48.102;11.636;2023-03-21T09:33:38;3.45;;;3.15;;
21513;SDS011;10918;48.102;11.636;2023-03-21T09:36:06;6.03;;;3.30;;
21513;SDS011;10918;48.102;11.636;2023-03-21T09:38:38;3.45;;;2.88;;
21513;SDS011;10918;48.102;11.636;2023-03-21T09:46:31;4.32;;;2.85;;
21513;SDS011;10918;48.102;11.636;2023-03-21T09:49:05;4.90;;;3.63;;
21513;SDS011;10918;48.102;11.636;2023-03-21T09:51:50;6.05;;;3.17;;
21513;SDS011;10918;48.102;11.636;2023-03-21T09:54:21;3.30;;;2.97;;
21513;SDS011;10918;48.102;11.636;2023-03-21T09:56:49;3.63;;;3.00;;
21513;SDS011;10918;48.102;11.636;2023-03-21T09:59:38;4.50;;;2.92;;
21513;SDS011;10918;48.102;11.636;2023-03-21T10:04:57;6.63;;;2.80;;
21513;SDS011;10918;48.102;11.636;2023-03-21T10:07:23;3.80;;;2.75;;
21513;SDS011;10918;48.102;11.636;2023-03-21T10:09:52;5.85;;;3.17;;
21513;SDS011;10918;48.102;11.636;2023-03-21T10:12:21;4.95;;;2.83;;
21513;SDS011;10918;48.102;11.636;2023-03-21T10:14:52;3.67;;;3.38;;
21513;SDS011;10918;48.102;11.636;2023-03-21T10:17:34;3.70;;;2.97;;
21513;SDS011;10918;48.102;11.636;2023-03-21T10:22:40;3.60;;;3.10;;
21513;SDS011;10918;48.102;11.636;2023-03-21T10:25:07;5.40;;;2.70;;
21513;SDS011;10918;48.102;11.636;2023-03-21T10:27:36;3.72;;;2.67;;
21513;SDS011;10918;48.102;11.636;2023-03-21T10:30:03;3.35;;;2.17;;
21513;SDS011;10918;48.102;11.636;2023-03-21T10:32:31;3.47;;;2.28;;
21513;SDS011;10918;48.102;11.636;2023-03-21T10:34:57;2.45;;;2.22;;
21513;SDS011;10918;48.102;11.636;2023-03-21T10:37:24;2.50;;;2.30;;
21513;SDS011;10918;48.102;11.636;2023-03-21T10:39:51;2.60;;;2.20;;
21513;SDS011;10918;48.102;11.636;2023-03-21T10:42:19;2.85;;;2.20;;
21513;SDS011;10918;48.102;11.636;2023-03-21T10:44:48;2.75;;;2.20;;
21513;SDS011;10918;48.102;11.636;2023-03-21T10:47:18;3.13;;;2.30;;
21513;SDS011;10918;48.102;11.636;2023-03-21T10:49:45;3.50;;;2.45;;
21513;SDS011;10918;48.102;11.636;2023-03-21T10:52:12;3.38;;;2.95;;
21513;SDS011;10918;48.102;11.636;2023-03-21T10:54:39;2.90;;;2.60;;
21513;SDS011;10918;48.102;11.636;2023-03-21T10:57:07;3.30;;;2.50;;
21513;SDS011;10918;48.102;11.636;2023-03-21T10:59:55;2.80;;;2.50;;
21513;SDS011;10918;48.102;11.636;2023-03-21T11:04:53;5.90;;;2.53;;
21513;SDS011;10918;48.102;11.636;2023-03-21T11:07:20;3.05;;;2.20;;
21513;SDS011;10918;48.102;11.636;2023-03-21T11:09:52;2.60;;;2.25;;
21513;SDS011;10918;48.102;11.636;2023-03-21T11:12:32;3.28;;;2.55;;
21513;SDS011;10918;48.102;11.636;2023-03-21T11:17:45;2.38;;;2.10;;
21513;SDS011;10918;48.102;11.636;2023-03-21T11:20:15;2.75;;;2.10;;
21513;SDS011;10918;48.102;11.636;2023-03-21T11:22:43;2.75;;;2.55;;
21513;SDS011;10918;48.102;11.636;2023-03-21T11:25:14;2.08;;;1.88;;
21513;SDS011;10918;48.102;11.636;2023-03-21T11:27:48;2.42;;;2.08;;
21513;SDS011;10918;48.102;11.636;2023-03-21T11:30:21;2.53;;;1.98;;
21513;SDS011;10918;48.102;11.636;2023-03-21T11:32:53;3.33;;;2.22;;
21513;SDS011;10918;48.102;11.636;2023-03-21T11:35:24;3.00;;;2.30;;
21513;SDS011;10918;48.102;11.636;2023-03-21T11:37:54;2.35;;;1.90;;
21513;SDS011;10918;48.102;11.636;2023-03-21T11:42:56;2.30;;;2.10;;
21513;SDS011;10918;48.102;11.636;2023-03-21T11:47:49;4.15;;;2.20;;
21513;SDS011;10918;48.102;11.636;2023-03-21T11:52:47;2.58;;;2.08;;
21513;SDS011;10918;48.102;11.636;2023-03-21T11:55:30;2.40;;;1.70;;
21513;SDS011;10918;48.102;11.636;2023-03-21T11:58:07;4.10;;;2.00;;
21513;SDS011;10918;48.102;11.636;2023-03-21T12:06:09;1.75;;;1.60;;
21513;SDS011;10918;48.102;11.636;2023-03-21T12:08:48;1.60;;;1.50;;
21513;SDS011;10918;48.102;11.636;2023-03-21T12:11:18;1.52;;;1.25;;
21513;SDS011;10918;48.102;11.636;2023-03-21T12:14:04;2.35;;;1.30;;
21513;SDS011;10918;48.102;11.636;2023-03-21T12:19:34;1.55;;;1.40;;
21513;SDS011;10918;48.102;11.636;2023-03-21T12:22:20;4.20;;;1.70;;
21513;SDS011;10918;48.102;11.636;2023-03-21T12:24:53;2.55;;;1.10;;
21513;SDS011;10918;48.102;11.636;2023-03-21T12:33:13;1.70;;;1.40;;
21513;SDS011;10918;48.102;11.636;2023-03-21T12:41:21;1.48;;;1.38;;
21513;SDS011;10918;48.102;11.636;2023-03-21T12:46:21;2.30;;;1.30;;
21513;SDS011;10918;48.102;11.636;2023-03-21T12:49:02;1.50;;;1.33;;
21513;SDS011;10918;48.102;11.636;2023-03-21T12:51:32;1.13;;;1.02;;
21513;SDS011;10918;48.102;11.636;2023-03-21T12:56:30;1.15;;;1.05;;
21513;SDS011;10918;48.102;11.636;2023-03-21T13:01:43;1.02;;;1.00;;
21513;SDS011;10918;48.102;11.636;2023-03-21T13:04:26;1.35;;;0.98;;
21513;SDS011;10918;48.102;11.636;2023-03-21T13:06:54;1.10;;;1.00;;
21513;SDS011;10918;48.102;11.636;2023-03-21T13:09:42;1.88;;;1.00;;
21513;SDS011;10918;48.102;11.636;2023-03-21T13:12:15;2.13;;;1.00;;
21513;SDS011;10918;48.102;11.636;2023-03-21T13:14:49;1.02;;;0.93;;
21513;SDS011;10918;48.102;11.636;2023-03-21T13:17:37;2.55;;;1.30;;
21513;SDS011;10918;48.102;11.636;2023-03-21T13:22:43;1.58;;;0.70;;
21513;SDS011;10918;48.102;11.636;2023-03-21T13:25:22;1.83;;;0.80;;
21513;SDS011;10918;48.102;11.636;2023-03-21T13:27:53;1.55;;;1.20;;
21513;SDS011;10918;48.102;11.636;2023-03-21T13:30:21;1.20;;;0.90;;
21513;SDS011;10918;48.102;11.636;2023-03-21T13:32:48;1.55;;;0.70;;
21513;SDS011;10918;48.102;11.636;2023-03-21T13:37:42;0.98;;;0.73;;
21513;SDS011;10918;48.102;11.636;2023-03-21T13:40:22;1.02;;;1.00;;
21513;SDS011;10918;48.102;11.636;2023-03-21T13:42:51;2.15;;;0.95;;
21513;SDS011;10918;48.102;11.636;2023-03-21T13:48:04;1.08;;;1.00;;
21513;SDS011;10918;48.102;11.636;2023-03-21T13:50:35;1.48;;;0.98;;
21513;SDS011;10918;48.102;11.636;2023-03-21T13:55:41;2.28;;;1.27;;
21513;SDS011;10918;48.102;11.636;2023-03-21T13:58:30;1.40;;;1.17;;
21513;SDS011;10918;48.102;11.636;2023-03-21T14:01:39;1.98;;;1.15;;
21513;SDS011;10918;48.102;11.636;2023-03-21T14:03:47;1.08;;;1.00;;
21513;SDS011;10918;48.102;11.636;2023-03-21T14:06:14;1.30;;;1.20;;
21513;SDS011;10918;48.102;11.636;2023-03-21T14:08:42;3.90;;;1.20;;
21513;SDS011;10918;48.102;11.636;2023-03-21T14:11:11;2.45;;;1.00;;
21513;SDS011;10918;48.102;11.636;2023-03-21T14:13:40;3.50;;;1.10;;
21513;SDS011;10918;48.102;11.636;2023-03-21T14:16:08;2.70;;;1.45;;
21513;SDS011;10918;48.102;11.636;2023-03-21T14:18:53;1.40;;;1.10;;
21513;SDS011;10918;48.102;11.636;2023-03-21T14:21:23;2.08;;;0.90;;
21513;SDS011;10918;48.102;11.636;2023-03-21T14:24:00;1.52;;;1.20;;
21513;SDS011;10918;48.102;11.636;2023-03-21T14:26:29;3.90;;;1.25;;
21513;SDS011;10918;48.102;11.636;2023-03-21T14:28:56;1.48;;;1.17;;
21513;SDS011;10918;48.102;11.636;2023-03-21T14:31:22;2.10;;;1.20;;
21513;SDS011;10918;48.102;11.636;2023-03-21T14:33:52;1.70;;;1.40;;
21513;SDS011;10918;48.102;11.636;2023-03-21T14:36:19;3.50;;;1.85;;
21513;SDS011;10918;48.102;11.636;2023-03-21T14:38:53;2.10;;;1.45;;
21513;SDS011;10918;48.102;11.636;2023-03-21T14:41:20;2.47;;;1.58;;
21513;SDS011;10918;48.102;11.636;2023-03-21T14:47:02;1.42;;;1.30;;
21513;SDS011;10918;48.102;11.636;2023-03-21T14:49:29;1.67;;;1.58;;
21513;SDS011;10918;48.102;11.636;2023-03-21T14:51:56;1.77;;;1.67;;
21513;SDS011;10918;48.102;11.636;2023-03-21T14:54:22;2.78;;;1.40;;
21513;SDS011;10918;48.102;11.636;2023-03-21T14:56:52;2.20;;;1.38;;
21513;SDS011;10918;48.102;11.636;2023-03-21T14:59:21;1.52;;;1.15;;
21513;SDS011;10918;48.102;11.636;2023-03-21T15:01:48;2.00;;;1.50;;
21513;SDS011;10918;48.102;11.636;2023-03-21T15:04:15;1.98;;;1.20;;
21513;SDS011;10918;48.102;11.636;2023-03-21T15:09:36;2.20;;;1.30;;
21513;SDS011;10918;48.102;11.636;2023-03-21T15:12:06;4.32;;;2.70;;
21513;SDS011;10918;48.102;11.636;2023-03-21T15:14:33;4.80;;;2.10;;
21513;SDS011;10918;48.102;11.636;2023-03-21T15:17:01;4.30;;;1.95;;
21513;SDS011;10918;48.102;11.636;2023-03-21T15:19:31;4.43;;;3.33;;
21513;SDS011;10918;48.102;11.636;2023-03-21T15:21:59;2.97;;;1.52;;
21513;SDS011;10918;48.102;11.636;2023-03-21T15:24:31;2.05;;;1.60;;
21513;SDS011;10918;48.102;11.636;2023-03-21T15:26:59;2.95;;;1.52;;
21513;SDS011;10918;48.102;11.636;2023-03-21T15:29:25;3.70;;;1.40;;
21513;SDS011;10918;48.102;11.636;2023-03-21T15:31:51;2.60;;;1.27;;
21513;SDS011;10918;48.102;11.636;2023-03-21T15:34:27;2.65;;;1.27;;
21513;SDS011;10918;48.102;11.636;2023-03-21T15:36:55;2.58;;;1.80;;
21513;SDS011;10918;48.102;11.636;2023-03-21T15:39:21;9.55;;;7.88;;
21513;SDS011;10918;48.102;11.636;2023-03-21T15:44:26;3.15;;;1.58;;
21513;SDS011;10918;48.102;11.636;2023-03-21T15:46:52;2.10;;;1.80;;
21513;SDS011;10918;48.102;11.636;2023-03-21T15:54:30;2.70;;;1.70;;
21513;SDS011;10918;48.102;11.636;2023-03-21T15:56:58;1.83;;;1.30;;
21513;SDS011;10918;48.102;11.636;2023-03-21T15:59:29;2.00;;;1.48;;
21513;SDS011;10918;48.102;11.636;2023-03-21T16:01:56;4.65;;;2.00;;
21513;SDS011;10918;48.102;11.636;2023-03-21T16:04:22;3.08;;;2.17;;
21513;SDS011;10918;48.102;11.636;2023-03-21T16:06:52;3.30;;;1.75;;
21513;SDS011;10918;48.102;11.636;2023-03-21T16:09:21;3.67;;;1.90;;
21513;SDS011;10918;48.102;11.636;2023-03-21T16:11:58;2.20;;;1.80;;
21513;SDS011;10918;48.102;11.636;2023-03-21T16:14:25;2.70;;;2.13;;
21513;SDS011;10918;48.102;11.636;2023-03-21T16:16:51;3.30;;;1.70;;
21513;SDS011;10918;48.102;11.636;2023-03-21T16:19:17;3.05;;;1.92;;
21513;SDS011;10918;48.102;11.636;2023-03-21T16:21:44;2.80;;;1.80;;
21513;SDS011;10918;48.102;11.636;2023-03-21T16:24:10;2.70;;;1.95;;
21513;SDS011;10918;48.102;11.636;2023-03-21T16:26:46;4.03;;;2.53;;
21513;SDS011;10918;48.102;11.636;2023-03-21T16:29:16;7.75;;;2.00;;
21513;SDS011;10918;48.102;11.636;2023-03-21T16:31:42;2.45;;;2.05;;
21513;SDS011;10918;48.102;11.636;2023-03-21T16:34:08;13.00;;;7.75;;